createdAt,value
2022-11-29T00:01:01.458Z,76.29
2022-11-29T00:03:28.938Z,76.63
2022-11-29T00:05:56.488Z,76.89
2022-11-29T00:08:24.453Z,77.21
2022-11-29T00:10:51.435Z,76.75
2022-11-29T00:13:18.231Z,76.87
2022-11-29T00:15:44.913Z,77.40
2022-11-29T00:18:11.603Z,77.75
2022-11-29T00:20:39.469Z,77.55
2022-11-29T00:23:06.167Z,77.48
2022-11-29T00:25:32.944Z,77.23
2022-11-29T00:27:59.870Z,77.43
2022-11-29T00:30:26.618Z,77.23
2022-11-29T00:32:53.381Z,76.83
2022-11-29T00:35:20.066Z,77.09
2022-11-29T00:37:46.732Z,77.40
2022-11-29T00:40:13.413Z,77.82
2022-11-29T00:42:40.099Z,77.82
2022-11-29T00:45:07.307Z,77.74
2022-11-29T00:47:33.983Z,77.54
2022-11-29T00:50:00.666Z,77.20
2022-11-29T00:52:27.358Z,76.75
2022-11-29T00:54:54.051Z,76.62
2022-11-29T00:57:21.396Z,77.18
2022-11-29T00:59:48.075Z,77.41
2022-11-29T01:02:14.840Z,77.88
2022-11-29T01:04:41.815Z,77.42
2022-11-29T01:07:08.686Z,77.36
2022-11-29T01:09:35.371Z,78.04
2022-11-29T01:12:02.154Z,78.05
2022-11-29T01:14:28.813Z,78.22
2022-11-29T01:16:55.527Z,78.30
2022-11-29T01:19:22.354Z,78.08
2022-11-29T01:21:49.154Z,78.12
2022-11-29T01:24:15.803Z,78.39
2022-11-29T01:29:26.589Z,78.78
2022-11-29T01:31:53.256Z,79.06
2022-11-29T01:34:20.087Z,79.19
2022-11-29T01:36:46.834Z,79.18
2022-11-29T01:39:13.527Z,79.08
2022-11-29T01:41:40.216Z,79.16
2022-11-29T01:44:26.948Z,79.44
2022-11-29T01:46:54.610Z,79.84
2022-11-29T01:49:39.732Z,79.75
2022-11-29T01:52:14.003Z,79.74
2022-11-29T01:54:45.680Z,79.83
2022-11-29T01:57:13.090Z,79.88
2022-11-29T01:59:46.581Z,79.57
2022-11-29T02:02:17.526Z,79.14
2022-11-29T02:04:46.308Z,79.20
2022-11-29T02:07:13.253Z,79.12
2022-11-29T02:09:40.732Z,79.15
2022-11-29T02:12:38.491Z,79.21
2022-11-29T02:15:13.602Z,79.02
2022-11-29T02:17:58.783Z,78.43
2022-11-29T02:20:48.434Z,78.54
2022-11-29T02:23:31.909Z,78.09
2022-11-29T02:26:21.311Z,77.87
2022-11-29T02:29:20.961Z,77.73
2022-11-29T02:32:02.762Z,77.71
2022-11-29T02:34:52.200Z,77.55
2022-11-29T02:37:27.360Z,77.29
2022-11-29T02:40:04.860Z,77.58
2022-11-29T02:42:57.192Z,77.36
2022-11-29T02:45:54.760Z,77.67
2022-11-29T02:48:44.417Z,77.95
2022-11-29T02:51:30.928Z,77.98
2022-11-29T02:54:04.623Z,78.26
2022-11-29T02:56:36.924Z,78.08
2022-11-29T02:59:16.705Z,78.02
2022-11-29T03:02:08.501Z,77.91
2022-11-29T03:04:43.924Z,78.11
2022-11-29T03:07:14.377Z,78.13
2022-11-29T03:09:48.753Z,77.82
2022-11-29T03:12:38.403Z,78.02
2022-11-29T03:15:19.822Z,77.59
2022-11-29T03:18:01.192Z,76.86
2022-11-29T03:20:50.370Z,76.77
2022-11-29T03:23:27.110Z,76.22
2022-11-29T03:26:10.930Z,76.28
2022-11-29T03:28:43.417Z,76.52
2022-11-29T03:31:18.064Z,76.36
2022-11-29T03:34:01.565Z,76.11
2022-11-29T03:36:41.230Z,75.68
2022-11-29T03:39:17.383Z,75.49
2022-11-29T03:41:52.377Z,75.34
2022-11-29T03:44:25.543Z,75.63
2022-11-29T03:47:12.687Z,75.67
2022-11-29T03:49:44.161Z,75.85
2022-11-29T03:52:41.580Z,75.63
2022-11-29T03:55:13.315Z,75.15
2022-11-29T03:57:56.832Z,75.11
2022-11-29T04:00:23.750Z,75.44
2022-11-29T04:03:21.946Z,75.60
2022-11-29T04:06:05.460Z,75.35
2022-11-29T04:09:02.613Z,75.06
2022-11-29T04:11:54.806Z,74.92
2022-11-29T04:14:44.898Z,74.89
2022-11-29T04:17:13.789Z,74.71
2022-11-29T04:20:11.594Z,74.79
2022-11-29T04:23:01.648Z,75.18
2022-11-29T04:25:44.733Z,74.85
2022-11-29T04:28:39.046Z,75.04
2022-11-29T04:31:28.918Z,74.87
2022-11-29T04:33:58.937Z,74.85
2022-11-29T04:36:30.502Z,74.96
2022-11-29T04:39:00.584Z,74.85
2022-11-29T04:41:30.646Z,74.76
2022-11-29T04:44:20.433Z,74.71
2022-11-29T04:47:09.759Z,74.98
2022-11-29T04:49:36.425Z,75.12
2022-11-29T04:52:20.612Z,75.13
2022-11-29T04:54:57.091Z,75.23
2022-11-29T04:57:35.773Z,75.74
2022-11-29T05:00:13.499Z,76.12
2022-11-29T05:02:59.842Z,76.24
2022-11-29T05:05:43.625Z,76.71
2022-11-29T05:08:13.115Z,76.69
2022-11-29T05:10:47.463Z,76.93
2022-11-29T05:13:44.630Z,77.13
2022-11-29T05:16:42.777Z,77.39
2022-11-29T05:19:14.986Z,77.85
2022-11-29T05:21:57.129Z,78.14
2022-11-29T05:24:39.070Z,78.51
2022-11-29T05:27:27.069Z,78.53
2022-11-29T05:30:13.184Z,79.03
2022-11-29T05:32:50.712Z,78.70
2022-11-29T05:35:34.613Z,78.37
2022-11-29T05:38:18.018Z,78.56
2022-11-29T05:40:44.829Z,78.43
2022-11-29T05:43:35.048Z,78.61
2022-11-29T05:46:13.614Z,78.34
2022-11-29T05:48:48.485Z,78.00
2022-11-29T05:51:21.133Z,78.14
2022-11-29T05:54:03.242Z,77.97
2022-11-29T05:56:49.106Z,78.33
2022-11-29T05:59:22.319Z,78.19
2022-11-29T06:01:59.625Z,77.80
2022-11-29T06:04:39.581Z,77.66
2022-11-29T06:07:24.949Z,77.91
2022-11-29T06:09:53.048Z,78.25
2022-11-29T06:12:23.849Z,78.03
2022-11-29T06:15:21.524Z,78.23
2022-11-29T06:18:03.758Z,78.52
2022-11-29T06:20:40.435Z,78.61
2022-11-29T06:23:33.418Z,78.29
2022-11-29T06:26:24.264Z,78.43
2022-11-29T06:28:51.017Z,78.46
2022-11-29T06:31:24.618Z,78.56
2022-11-29T06:34:12.454Z,78.79
2022-11-29T06:36:47.167Z,78.82
2022-11-29T06:39:14.209Z,79.82
2022-11-29T06:41:40.951Z,80.06
2022-11-29T06:44:08.653Z,80.19
2022-11-29T06:47:05.590Z,79.96
2022-11-29T06:49:44.730Z,79.95
2022-11-29T06:52:32.541Z,80.37
2022-11-29T06:55:03.001Z,81.34
2022-11-29T06:57:44.843Z,81.03
2022-11-29T07:00:21.628Z,81.81
2022-11-29T07:02:48.371Z,82.04
2022-11-29T07:05:23.865Z,82.29
2022-11-29T07:07:54.362Z,82.22
2022-11-29T07:10:22.458Z,82.15
2022-11-29T07:12:51.441Z,82.03
2022-11-29T07:15:21.466Z,81.91
2022-11-29T07:17:55.417Z,81.66
2022-11-29T07:20:35.918Z,81.27
2022-11-29T07:23:30.841Z,80.76
2022-11-29T07:26:28.535Z,80.57
2022-11-29T07:29:24.073Z,80.34
2022-11-29T07:32:11.998Z,80.08
2022-11-29T07:35:00.581Z,79.87
2022-11-29T07:37:46.209Z,79.36
2022-11-29T07:40:22.139Z,78.57
2022-11-29T07:43:04.040Z,77.72
2022-11-29T07:45:33.442Z,77.09
2022-11-29T07:48:00.448Z,76.51
2022-11-29T07:50:28.436Z,76.13
2022-11-29T07:52:56.497Z,75.70
2022-11-29T07:55:25.996Z,75.45
2022-11-29T07:57:53.691Z,74.01
2022-11-29T08:00:21.607Z,73.59
2022-11-29T08:02:49.988Z,73.36
2022-11-29T08:05:17.252Z,72.99
2022-11-29T08:07:44.097Z,73.25
2022-11-29T08:10:15.031Z,73.50
2022-11-29T08:12:44.897Z,73.10
2022-11-29T08:15:12.103Z,73.08
2022-11-29T08:17:39.613Z,72.55
2022-11-29T08:20:09.049Z,71.89
2022-11-29T08:22:36.063Z,70.49
2022-11-29T08:25:03.780Z,69.20
2022-11-29T08:27:30.840Z,68.07
2022-11-29T08:29:57.778Z,66.64
2022-11-29T08:32:24.922Z,65.78
2022-11-29T08:34:51.985Z,64.00
2022-11-29T08:37:18.726Z,61.80
2022-11-29T08:39:45.572Z,60.29
2022-11-29T08:42:12.263Z,59.28
2022-11-29T08:44:39.052Z,58.34
2022-11-29T08:47:21.080Z,58.33
2022-11-29T08:50:03.209Z,57.13
2022-11-29T08:52:47.042Z,56.58
2022-11-29T08:55:13.847Z,56.17
2022-11-29T08:57:41.402Z,55.42
2022-11-29T09:00:09.456Z,54.49
2022-11-29T09:02:37.363Z,53.42
2022-11-29T09:05:05.766Z,52.79
2022-11-29T09:07:32.656Z,52.75
2022-11-29T09:10:01.057Z,52.40
2022-11-29T09:12:27.907Z,51.94
2022-11-29T09:14:54.658Z,51.37
2022-11-29T09:17:21.401Z,50.33
2022-11-29T09:19:48.227Z,50.30
2022-11-29T09:22:14.982Z,49.76
2022-11-29T09:24:41.733Z,49.20
2022-11-29T09:27:08.453Z,49.25
2022-11-29T09:29:35.330Z,49.13
2022-11-29T09:32:02.092Z,49.24
2022-11-29T09:34:28.914Z,49.88
2022-11-29T09:36:55.768Z,49.95
2022-11-29T09:39:23.072Z,50.35
2022-11-29T09:42:11.966Z,50.53
2022-11-29T09:44:46.355Z,50.66
2022-11-29T09:47:14.268Z,50.76
2022-11-29T09:49:57.428Z,51.14
2022-11-29T09:52:40.851Z,51.01
2022-11-29T09:55:23.422Z,51.95
2022-11-29T09:57:52.350Z,52.73
2022-11-29T10:00:20.619Z,52.79
2022-11-29T10:02:57.054Z,53.25
2022-11-29T10:05:39.111Z,53.81
2022-11-29T10:08:15.860Z,54.16
2022-11-29T10:10:48.456Z,53.77
2022-11-29T10:13:33.445Z,54.04
2022-11-29T10:16:12.490Z,54.43
2022-11-29T10:18:48.470Z,54.79
2022-11-29T10:21:24.460Z,54.89
2022-11-29T10:23:55.498Z,54.24
2022-11-29T10:26:25.854Z,53.89
2022-11-29T10:28:57.886Z,53.43
2022-11-29T10:31:29.263Z,53.04
2022-11-29T10:33:58.173Z,54.31
2022-11-29T10:36:34.287Z,53.86
2022-11-29T10:39:11.402Z,53.71
2022-11-29T10:41:41.239Z,54.10
2022-11-29T10:44:13.861Z,54.47
2022-11-29T10:46:41.275Z,54.40
2022-11-29T10:49:17.468Z,54.61
2022-11-29T10:51:46.407Z,54.77
2022-11-29T10:54:27.993Z,54.11
2022-11-29T10:56:57.481Z,54.38
2022-11-29T10:59:27.100Z,54.05
2022-11-29T11:01:54.612Z,53.75
2022-11-29T11:04:26.839Z,53.32
2022-11-29T11:06:57.169Z,52.37
2022-11-29T11:09:35.660Z,52.21
2022-11-29T11:12:19.011Z,52.14
2022-11-29T11:14:47.198Z,51.98
2022-11-29T11:17:32.721Z,51.55
2022-11-29T11:20:18.926Z,51.71
2022-11-29T11:22:57.954Z,51.08
2022-11-29T11:25:41.298Z,50.98
2022-11-29T11:28:15.514Z,50.03
2022-11-29T11:30:51.496Z,49.53
2022-11-29T11:33:19.282Z,49.13
2022-11-29T11:36:17.649Z,48.58
2022-11-29T11:39:15.214Z,47.98
2022-11-29T11:41:58.460Z,47.31
2022-11-29T11:44:52.342Z,46.78
2022-11-29T11:47:24.502Z,46.57
2022-11-29T11:49:54.610Z,45.99
2022-11-29T11:52:26.412Z,46.14
2022-11-29T11:54:59.819Z,45.57
2022-11-29T11:57:28.255Z,44.53
2022-11-29T12:00:03.422Z,43.89
2022-11-29T12:02:40.848Z,43.52
2022-11-29T12:05:18.961Z,43.53
2022-11-29T12:08:09.801Z,44.08
2022-11-29T12:10:39.842Z,43.24
2022-11-29T12:13:16.268Z,42.78
2022-11-29T12:15:47.675Z,41.96
2022-11-29T12:18:36.187Z,41.87
2022-11-29T12:21:10.434Z,41.44
2022-11-29T12:23:47.746Z,40.89
2022-11-29T12:26:48.881Z,40.86
2022-11-29T12:29:17.701Z,40.43
2022-11-29T12:31:55.895Z,40.56
2022-11-29T12:34:45.286Z,40.80
2022-11-29T12:37:20.826Z,41.21
2022-11-29T12:39:57.415Z,40.67
2022-11-29T12:42:24.216Z,40.47
2022-11-29T12:45:06.318Z,40.22
2022-11-29T12:47:57.237Z,40.51
2022-11-29T12:50:39.637Z,40.54
2022-11-29T12:53:30.440Z,40.69
2022-11-29T12:56:19.120Z,41.18
2022-11-29T12:59:02.558Z,41.64
2022-11-29T13:02:04.865Z,42.04
2022-11-29T13:04:44.189Z,41.98
2022-11-29T13:07:30.132Z,41.96
2022-11-29T13:10:17.663Z,42.03
2022-11-29T13:12:53.922Z,42.34
2022-11-29T13:15:25.029Z,42.04
2022-11-29T13:17:53.164Z,42.10
2022-11-29T13:20:37.042Z,41.83
2022-11-29T13:23:14.503Z,42.37
2022-11-29T13:25:45.247Z,42.18
2022-11-29T13:28:29.258Z,42.27
2022-11-29T13:31:01.771Z,42.28
2022-11-29T13:33:59.116Z,43.12
2022-11-29T13:36:56.789Z,44.42
2022-11-29T13:39:54.487Z,45.66
2022-11-29T13:42:28.745Z,47.92
2022-11-29T13:45:07.529Z,49.51
2022-11-29T13:47:48.575Z,50.86
2022-11-29T13:50:44.327Z,52.04
2022-11-29T13:53:18.010Z,53.41
2022-11-29T13:55:50.338Z,54.42
2022-11-29T13:58:18.611Z,55.55
2022-11-29T14:00:45.847Z,56.92
2022-11-29T14:03:30.255Z,58.46
2022-11-29T14:06:12.462Z,60.29
2022-11-29T14:09:17.237Z,62.03
2022-11-29T14:11:46.005Z,63.44
2022-11-29T14:14:14.024Z,64.12
2022-11-29T14:16:44.250Z,64.61
2022-11-29T14:19:20.399Z,65.44
2022-11-29T14:22:15.852Z,66.48
2022-11-29T14:24:55.538Z,67.69
2022-11-29T14:27:22.290Z,68.95
2022-11-29T14:29:50.199Z,69.24
2022-11-29T14:32:24.882Z,69.67
2022-11-29T14:35:04.816Z,70.03
2022-11-29T14:38:02.160Z,70.59
2022-11-29T14:40:41.580Z,70.94
2022-11-29T14:43:37.601Z,71.11
2022-11-29T14:46:09.494Z,71.43
2022-11-29T14:48:36.970Z,71.64
2022-11-29T14:51:12.791Z,71.60
2022-11-29T14:53:42.023Z,71.93
2022-11-29T14:56:32.892Z,72.29
2022-11-29T14:59:30.580Z,72.82
2022-11-29T15:01:58.979Z,73.29
2022-11-29T15:04:27.306Z,73.51
2022-11-29T15:06:57.096Z,73.70
2022-11-29T15:09:24.710Z,74.15
2022-11-29T15:12:09.837Z,74.63
2022-11-29T15:14:37.760Z,74.67
2022-11-29T15:17:17.930Z,74.77
2022-11-29T15:19:51.794Z,75.16
2022-11-29T15:22:22.678Z,75.29
2022-11-29T15:24:53.860Z,75.49
2022-11-29T15:27:21.835Z,75.99
2022-11-29T15:29:48.890Z,76.29
2022-11-29T15:32:23.799Z,76.43
2022-11-29T15:34:53.562Z,76.39
2022-11-29T15:37:24.847Z,76.42
2022-11-29T15:40:11.068Z,76.77
2022-11-29T15:42:40.945Z,76.67
2022-11-29T15:45:24.283Z,77.09
2022-11-29T15:47:51.256Z,76.87
2022-11-29T15:50:29.619Z,76.92
2022-11-29T15:53:02.014Z,76.98
2022-11-29T15:55:29.589Z,77.03
2022-11-29T15:58:02.632Z,77.05
2022-11-29T16:00:33.847Z,77.59
2022-11-29T16:03:02.205Z,77.58
2022-11-29T16:05:35.800Z,78.23
2022-11-29T16:08:07.935Z,77.91
2022-11-29T16:10:39.487Z,77.79
2022-11-29T16:13:27.660Z,78.15
2022-11-29T16:16:10.942Z,78.45
2022-11-29T16:18:41.001Z,78.30
2022-11-29T16:21:21.663Z,78.25
2022-11-29T16:23:48.618Z,78.41
2022-11-29T16:26:20.675Z,78.64
2022-11-29T16:28:50.357Z,78.81
2022-11-29T16:31:19.303Z,79.18
2022-11-29T16:33:49.093Z,78.97
2022-11-29T16:36:16.591Z,78.97
2022-11-29T16:38:47.017Z,78.92
2022-11-29T16:41:21.470Z,79.08
2022-11-29T16:43:53.671Z,79.25
2022-11-29T16:46:20.426Z,79.10
2022-11-29T16:48:49.455Z,78.99
2022-11-29T16:51:23.807Z,79.39
2022-11-29T16:53:52.527Z,79.37
2022-11-29T16:56:23.521Z,79.42
2022-11-29T16:59:20.867Z,79.15
2022-11-29T17:01:40.613Z,79.26
2022-11-29T17:04:09.037Z,79.27
2022-11-29T17:06:36.864Z,79.61
2022-11-29T17:09:03.892Z,80.01
2022-11-29T17:11:30.595Z,80.74
2022-11-29T17:13:57.716Z,80.74
2022-11-29T17:16:24.891Z,81.10
2022-11-29T17:18:52.996Z,81.44
2022-11-29T17:21:25.507Z,81.47
2022-11-29T17:23:53.608Z,81.86
2022-11-29T17:26:21.631Z,81.98
2022-11-29T17:28:50.277Z,82.06
2022-11-29T17:31:19.871Z,82.34
2022-11-29T17:33:46.685Z,82.35
2022-11-29T17:36:16.690Z,82.39
2022-11-29T17:38:44.788Z,82.61
2022-11-29T17:41:14.994Z,82.65
2022-11-29T17:43:42.399Z,82.74
2022-11-29T17:46:11.492Z,82.64
2022-11-29T17:48:38.800Z,82.66
2022-11-29T17:51:17.222Z,82.84
2022-11-29T17:53:53.887Z,82.56
2022-11-29T17:56:23.853Z,82.67
2022-11-29T17:58:52.512Z,82.63
2022-11-29T18:01:22.147Z,82.61
2022-11-29T18:03:52.019Z,82.50
2022-11-29T18:06:20.953Z,82.28
2022-11-29T18:08:50.718Z,82.16
2022-11-29T18:11:20.203Z,82.13
2022-11-29T18:13:47.974Z,81.91
2022-11-29T18:16:18.133Z,82.09
2022-11-29T18:18:45.486Z,82.24
2022-11-29T18:21:13.481Z,81.96
2022-11-29T18:23:42.848Z,81.60
2022-11-29T18:26:15.997Z,81.23
2022-11-29T18:31:31.231Z,80.61
2022-11-29T18:34:14.313Z,80.42
2022-11-29T18:36:44.535Z,80.29
2022-11-29T18:39:14.850Z,80.52
2022-11-29T18:41:44.082Z,80.53
2022-11-29T18:44:13.165Z,80.41
2022-11-29T18:46:41.672Z,80.35
2022-11-29T18:49:10.325Z,80.41
2022-11-29T18:51:38.106Z,80.39
2022-11-29T18:54:06.047Z,80.70
2022-11-29T18:56:35.057Z,80.59
2022-11-29T18:59:04.998Z,80.82
2022-11-29T19:01:37.885Z,80.85
2022-11-29T19:04:04.822Z,80.80
2022-11-29T19:06:39.371Z,80.58
2022-11-29T19:09:09.829Z,80.74
2022-11-29T19:11:36.573Z,80.81
2022-11-29T19:14:08.027Z,80.82
2022-11-29T19:16:34.801Z,80.71
2022-11-29T19:19:02.007Z,80.93
2022-11-29T19:21:32.061Z,80.68
2022-11-29T19:24:01.019Z,81.27
2022-11-29T19:26:29.637Z,81.09
2022-11-29T19:28:57.252Z,80.95
2022-11-29T19:31:25.294Z,81.33
2022-11-29T19:33:52.873Z,81.20
2022-11-29T19:36:22.483Z,81.16
2022-11-29T19:38:53.399Z,80.95
2022-11-29T19:41:23.635Z,81.17
2022-11-29T19:43:50.684Z,81.08
2022-11-29T19:46:18.984Z,81.16
2022-11-29T19:48:46.278Z,80.91
2022-11-29T19:51:16.591Z,80.89
2022-11-29T19:53:45.097Z,80.94
2022-11-29T19:56:14.334Z,80.67
2022-11-29T19:58:42.782Z,80.38
2022-11-29T20:01:14.962Z,80.40
2022-11-29T20:03:42.223Z,80.00
2022-11-29T20:06:09.902Z,80.25
2022-11-29T20:08:38.529Z,80.20
2022-11-29T20:11:11.769Z,79.94
2022-11-29T20:13:40.029Z,80.31
2022-11-29T20:16:12.097Z,79.77
2022-11-29T20:18:44.605Z,79.94
2022-11-29T20:21:32.421Z,79.63
2022-11-29T20:24:02.000Z,79.49
2022-11-29T20:26:31.100Z,79.37
2022-11-29T20:28:59.168Z,79.31
2022-11-29T20:31:26.404Z,79.46
2022-11-29T20:33:55.080Z,79.38
2022-11-29T20:36:52.930Z,79.49
2022-11-29T20:39:29.257Z,79.26
2022-11-29T20:42:14.752Z,79.29
2022-11-29T20:44:52.300Z,79.15
2022-11-29T20:47:21.775Z,79.21
2022-11-29T20:49:49.095Z,79.63
2022-11-29T20:52:30.843Z,79.34
2022-11-29T20:54:57.504Z,79.39
2022-11-29T20:57:24.237Z,79.79
2022-11-29T20:59:50.955Z,79.73
2022-11-29T21:02:17.607Z,79.65
2022-11-29T21:04:44.558Z,79.65
2022-11-29T21:07:11.604Z,79.46
2022-11-29T21:09:38.243Z,79.10
2022-11-29T21:12:05.547Z,78.92
2022-11-29T21:14:32.500Z,79.12
2022-11-29T21:16:59.768Z,79.24
2022-11-29T21:19:26.986Z,79.27
2022-11-29T21:22:01.468Z,79.26
2022-11-29T21:24:54.460Z,79.32
2022-11-29T21:27:34.219Z,79.60
2022-11-29T21:30:03.712Z,79.77
2022-11-29T21:32:31.807Z,80.22
2022-11-29T21:34:59.121Z,79.76
2022-11-29T21:37:29.739Z,79.59
2022-11-29T21:39:57.668Z,79.97
2022-11-29T21:42:24.348Z,80.21
2022-11-29T21:44:51.035Z,80.53
2022-11-29T21:47:17.949Z,80.39
2022-11-29T21:49:45.045Z,80.43
2022-11-29T21:52:11.749Z,80.57
2022-11-29T21:54:39.361Z,80.72
2022-11-29T21:57:06.102Z,80.25
2022-11-29T21:59:32.763Z,80.66
2022-11-29T22:01:59.701Z,80.23
2022-11-29T22:04:26.690Z,80.31
2022-11-29T22:06:53.569Z,80.28
2022-11-29T22:09:20.457Z,80.29
2022-11-29T22:11:47.110Z,79.99
2022-11-29T22:14:18.243Z,79.65
2022-11-29T22:16:47.274Z,79.83
2022-11-29T22:19:16.938Z,79.61
2022-11-29T22:21:46.536Z,79.68
2022-11-29T22:24:15.923Z,79.87
2022-11-29T22:26:43.911Z,79.89
2022-11-29T22:29:13.966Z,79.98
2022-11-29T22:31:41.608Z,79.85
2022-11-29T22:34:09.473Z,79.91
2022-11-29T22:36:37.551Z,79.60
2022-11-29T22:39:05.594Z,80.14
2022-11-29T22:41:34.088Z,79.85
2022-11-29T22:44:00.899Z,79.64
2022-11-29T22:46:29.048Z,79.81
2022-11-29T22:48:57.660Z,79.70
2022-11-29T22:51:30.628Z,80.05
2022-11-29T22:54:00.437Z,79.73
2022-11-29T22:56:29.691Z,79.74
2022-11-29T22:58:57.995Z,79.58
2022-11-29T23:01:26.976Z,79.38
2022-11-29T23:03:56.209Z,79.52
2022-11-29T23:06:25.604Z,79.40
2022-11-29T23:08:54.802Z,79.72
2022-11-29T23:11:24.175Z,79.43
2022-11-29T23:13:51.074Z,79.39
2022-11-29T23:16:20.626Z,79.69
2022-11-29T23:18:47.693Z,79.34
2022-11-29T23:21:20.926Z,79.49
2022-11-29T23:23:52.908Z,79.34
2022-11-29T23:26:26.066Z,79.70
2022-11-29T23:28:54.153Z,79.65
2022-11-29T23:31:22.615Z,79.76
2022-11-29T23:33:49.632Z,80.14
2022-11-29T23:36:17.899Z,80.00
2022-11-29T23:38:45.217Z,80.15
2022-11-29T23:41:12.294Z,80.29
2022-11-29T23:43:40.711Z,80.22
2022-11-29T23:46:10.363Z,80.39
2022-11-29T23:48:37.296Z,80.19
2022-11-29T23:51:04.308Z,79.96
2022-11-29T23:53:31.226Z,80.12
2022-11-29T23:56:00.112Z,80.10
2022-11-29T23:58:26.905Z,80.17
